This is the latest recevied weather packets stored in our database for station/object N8JE-13. If no packets are shown the sender has not sent any weather packets the latest 10 day(s).
| Time | Temp. | Humidity | Pressure | Rain* | Wind** | Luminosity | Snow |
|---|---|---|---|---|---|---|---|
| 1778016051 | 15.56° C | 92% | 1006.6 hPa | 2.54 mm | - | - | - |
| 1778015751 | 15.56° C | 91% | 1006.6 hPa | 3.56 mm | - | - | - |
| 1778015451 | 15.56° C | 91% | 1006.5 hPa | 4.32 mm | - | - | - |
| 1778015151 | 15.56° C | 91% | 1006.5 hPa | 4.57 mm | - | - | - |
| 1778014852 | 15.56° C | 90% | 1006.6 hPa | 4.57 mm | - | - | - |
| 1778014551 | 15.56° C | 90% | 1006.6 hPa | 4.57 mm | - | - | - |
| 1778014251 | 15.56° C | 90% | 1006.7 hPa | 4.57 mm | - | - | - |
| 1778013951 | 16.11° C | 89% | 1006.8 hPa | 4.32 mm | - | - | - |
| 1778013651 | 16.11° C | 89% | 1006.9 hPa | 3.81 mm | - | - | - |
| 1778013350 | 16.11° C | 88% | 1006.9 hPa | 3.56 mm | - | - | - |
| 1778013051 | 16.11° C | 87% | 1006.9 hPa | 3.3 mm | - | - | - |
| 1778012751 | 16.67° C | 85% | 1006.9 hPa | 3.05 mm | - | - | - |
| 1778012451 | 16.67° C | 83% | 1006.8 hPa | 2.54 mm | - | - | - |
| 1778012152 | 17.78° C | 79% | 1006.7 hPa | 1.52 mm | - | - | - |
| 1778011851 | 18.33° C | 77% | 1006.5 hPa | 0.76 mm | - | - | - |
| 1778011551 | 18.33° C | 74% | 1006.2 hPa | 0.25 mm | - | - | - |
| 1778011252 | 18.89° C | 72% | 1006.3 hPa | 0.25 mm | - | - | - |
| 1778010952 | 18.89° C | 71% | 1006.2 hPa | 0 mm | - | - | - |
| 1778010652 | 18.89° C | 71% | 1006.3 hPa | 0 mm | - | - | - |
| 1778010352 | 18.89° C | 71% | 1006.4 hPa | 0 mm | - | - | - |
| 1778010051 | 18.89° C | 71% | 1006.5 hPa | 0 mm | - | - | - |
| 1778009751 | 18.89° C | 71% | 1006.6 hPa | 0 mm | - | - | - |
| 1778009452 | 18.89° C | 72% | 1006.7 hPa | 0.51 mm | - | - | - |
| 1778009152 | 18.89° C | 72% | 1006.7 hPa | 0.51 mm | - | - | - |
| 1778008852 | 18.89° C | 72% | 1006.6 hPa | 0.51 mm | - | - | - |
* Rain latest hour (hover to see other rain measurements)
** Current wind speed in m/s (hover to see current wind gust speed)